sensor_id;sensor_type;location;lat;lon;timestamp;temperature;humidity
41058;DHT22;66768;48.884;2.258;2023-07-20T00:02:02;20.50;94.00
41058;DHT22;66768;48.884;2.258;2023-07-20T00:04:30;20.50;94.00
41058;DHT22;66768;48.884;2.258;2023-07-20T00:06:57;20.60;94.00
41058;DHT22;66768;48.884;2.258;2023-07-20T00:09:26;20.50;93.90
41058;DHT22;66768;48.884;2.258;2023-07-20T00:11:53;20.50;94.00
41058;DHT22;66768;48.884;2.258;2023-07-20T00:14:20;20.50;94.00
41058;DHT22;66768;48.884;2.258;2023-07-20T00:16:47;20.40;94.10
41058;DHT22;66768;48.884;2.258;2023-07-20T00:19:21;20.40;94.20
41058;DHT22;66768;48.884;2.258;2023-07-20T00:21:48;20.30;94.20
41058;DHT22;66768;48.884;2.258;2023-07-20T00:24:15;20.30;94.30
41058;DHT22;66768;48.884;2.258;2023-07-20T00:26:43;20.40;94.30
41058;DHT22;66768;48.884;2.258;2023-07-20T00:29:10;20.30;94.60
41058;DHT22;66768;48.884;2.258;2023-07-20T00:31:37;20.30;94.40
41058;DHT22;66768;48.884;2.258;2023-07-20T00:34:04;20.30;94.40
41058;DHT22;66768;48.884;2.258;2023-07-20T00:36:31;20.30;94.50
41058;DHT22;66768;48.884;2.258;2023-07-20T00:38:58;20.40;94.50
41058;DHT22;66768;48.884;2.258;2023-07-20T00:41:25;20.30;94.50
41058;DHT22;66768;48.884;2.258;2023-07-20T00:43:56;20.40;94.60
41058;DHT22;66768;48.884;2.258;2023-07-20T00:46:23;20.40;94.60
41058;DHT22;66768;48.884;2.258;2023-07-20T00:48:51;20.30;94.50
41058;DHT22;66768;48.884;2.258;2023-07-20T00:51:20;20.30;94.70
41058;DHT22;66768;48.884;2.258;2023-07-20T00:53:47;20.30;94.70
41058;DHT22;66768;48.884;2.258;2023-07-20T00:56:15;20.30;94.80
41058;DHT22;66768;48.884;2.258;2023-07-20T00:58:42;20.30;94.80
41058;DHT22;66768;48.884;2.258;2023-07-20T01:01:10;20.30;95.10
41058;DHT22;66768;48.884;2.258;2023-07-20T01:03:37;20.30;94.90
41058;DHT22;66768;48.884;2.258;2023-07-20T01:06:15;20.30;94.90
41058;DHT22;66768;48.884;2.258;2023-07-20T01:08:51;20.30;95.00
41058;DHT22;66768;48.884;2.258;2023-07-20T01:11:27;20.20;95.00
41058;DHT22;66768;48.884;2.258;2023-07-20T01:13:55;20.10;95.10
41058;DHT22;66768;48.884;2.258;2023-07-20T01:16:24;20.20;95.40
41058;DHT22;66768;48.884;2.258;2023-07-20T01:18:51;20.20;95.20
41058;DHT22;66768;48.884;2.258;2023-07-20T01:21:23;20.20;95.20
41058;DHT22;66768;48.884;2.258;2023-07-20T01:24:11;20.20;95.20
41058;DHT22;66768;48.884;2.258;2023-07-20T01:27:00;20.20;95.30
41058;DHT22;66768;48.884;2.258;2023-07-20T01:29:50;20.10;95.30
41058;DHT22;66768;48.884;2.258;2023-07-20T01:32:23;20.10;95.50
41058;DHT22;66768;48.884;2.258;2023-07-20T01:34:52;20.10;95.40
41058;DHT22;66768;48.884;2.258;2023-07-20T01:37:20;20.10;95.40
41058;DHT22;66768;48.884;2.258;2023-07-20T01:39:52;20.10;95.40
41058;DHT22;66768;48.884;2.258;2023-07-20T01:42:21;20.00;95.30
41058;DHT22;66768;48.884;2.258;2023-07-20T01:44:50;20.10;95.40
41058;DHT22;66768;48.884;2.258;2023-07-20T01:47:17;20.00;95.30
41058;DHT22;66768;48.884;2.258;2023-07-20T01:49:46;20.00;95.40
41058;DHT22;66768;48.884;2.258;2023-07-20T01:52:13;20.00;95.40
41058;DHT22;66768;48.884;2.258;2023-07-20T01:54:40;19.90;95.50
41058;DHT22;66768;48.884;2.258;2023-07-20T01:57:07;19.90;95.60
41058;DHT22;66768;48.884;2.258;2023-07-20T01:59:34;19.80;95.70
41058;DHT22;66768;48.884;2.258;2023-07-20T02:02:01;19.90;95.70
41058;DHT22;66768;48.884;2.258;2023-07-20T02:04:28;19.80;95.70
41058;DHT22;66768;48.884;2.258;2023-07-20T02:06:56;19.80;95.70
41058;DHT22;66768;48.884;2.258;2023-07-20T02:09:23;19.80;95.80
41058;DHT22;66768;48.884;2.258;2023-07-20T02:11:50;19.80;95.90
41058;DHT22;66768;48.884;2.258;2023-07-20T02:14:17;19.80;95.90
41058;DHT22;66768;48.884;2.258;2023-07-20T02:16:43;19.80;96.00
41058;DHT22;66768;48.884;2.258;2023-07-20T02:19:10;19.80;96.00
41058;DHT22;66768;48.884;2.258;2023-07-20T02:21:37;19.70;96.00
41058;DHT22;66768;48.884;2.258;2023-07-20T02:24:06;19.70;96.00
41058;DHT22;66768;48.884;2.258;2023-07-20T02:26:33;19.70;96.00
41058;DHT22;66768;48.884;2.258;2023-07-20T02:29:00;19.70;96.00
41058;DHT22;66768;48.884;2.258;2023-07-20T02:31:27;19.70;96.00
41058;DHT22;66768;48.884;2.258;2023-07-20T02:33:54;19.70;96.10
41058;DHT22;66768;48.884;2.258;2023-07-20T02:36:21;19.70;96.10
41058;DHT22;66768;48.884;2.258;2023-07-20T02:38:48;19.70;96.20
41058;DHT22;66768;48.884;2.258;2023-07-20T02:41:16;19.60;96.40
41058;DHT22;66768;48.884;2.258;2023-07-20T02:43:43;19.60;96.20
41058;DHT22;66768;48.884;2.258;2023-07-20T02:46:09;19.60;96.20
41058;DHT22;66768;48.884;2.258;2023-07-20T02:48:36;19.60;96.30
41058;DHT22;66768;48.884;2.258;2023-07-20T02:51:03;19.60;96.40
41058;DHT22;66768;48.884;2.258;2023-07-20T02:53:30;19.60;96.50
41058;DHT22;66768;48.884;2.258;2023-07-20T02:55:57;19.60;96.50
41058;DHT22;66768;48.884;2.258;2023-07-20T02:58:25;19.50;96.50
41058;DHT22;66768;48.884;2.258;2023-07-20T03:00:52;19.50;96.60
41058;DHT22;66768;48.884;2.258;2023-07-20T03:03:19;19.50;96.60
41058;DHT22;66768;48.884;2.258;2023-07-20T03:05:46;19.50;96.70
41058;DHT22;66768;48.884;2.258;2023-07-20T03:08:19;19.50;96.70
41058;DHT22;66768;48.884;2.258;2023-07-20T03:10:46;19.40;96.70
41058;DHT22;66768;48.884;2.258;2023-07-20T03:13:13;19.40;96.80
41058;DHT22;66768;48.884;2.258;2023-07-20T03:15:43;19.40;96.70
41058;DHT22;66768;48.884;2.258;2023-07-20T03:18:09;19.40;96.80
41058;DHT22;66768;48.884;2.258;2023-07-20T03:20:37;19.40;96.80
41058;DHT22;66768;48.884;2.258;2023-07-20T03:23:04;19.40;96.80
41058;DHT22;66768;48.884;2.258;2023-07-20T03:25:31;19.40;96.80
41058;DHT22;66768;48.884;2.258;2023-07-20T03:27:59;19.30;96.70
41058;DHT22;66768;48.884;2.258;2023-07-20T03:30:26;19.30;96.80
41058;DHT22;66768;48.884;2.258;2023-07-20T03:32:54;19.40;96.80
41058;DHT22;66768;48.884;2.258;2023-07-20T03:35:21;19.30;96.80
41058;DHT22;66768;48.884;2.258;2023-07-20T03:37:47;19.20;96.80
41058;DHT22;66768;48.884;2.258;2023-07-20T03:40:14;19.30;96.90
41058;DHT22;66768;48.884;2.258;2023-07-20T03:42:42;19.20;97.00
41058;DHT22;66768;48.884;2.258;2023-07-20T03:45:09;19.20;97.00
41058;DHT22;66768;48.884;2.258;2023-07-20T03:47:36;19.10;97.00
41058;DHT22;66768;48.884;2.258;2023-07-20T03:50:05;19.10;97.30
41058;DHT22;66768;48.884;2.258;2023-07-20T03:52:32;19.10;97.10
41058;DHT22;66768;48.884;2.258;2023-07-20T03:54:59;19.10;97.10
41058;DHT22;66768;48.884;2.258;2023-07-20T03:57:26;19.10;97.10
41058;DHT22;66768;48.884;2.258;2023-07-20T03:59:53;19.00;97.10
41058;DHT22;66768;48.884;2.258;2023-07-20T04:02:21;19.00;97.40
41058;DHT22;66768;48.884;2.258;2023-07-20T04:04:48;19.00;97.20
41058;DHT22;66768;48.884;2.258;2023-07-20T04:07:16;18.90;97.20
41058;DHT22;66768;48.884;2.258;2023-07-20T04:09:43;18.90;97.50
41058;DHT22;66768;48.884;2.258;2023-07-20T04:12:10;18.90;97.40
41058;DHT22;66768;48.884;2.258;2023-07-20T04:14:36;18.90;97.30
41058;DHT22;66768;48.884;2.258;2023-07-20T04:17:04;18.90;97.50
41058;DHT22;66768;48.884;2.258;2023-07-20T04:19:30;18.90;97.70
41058;DHT22;66768;48.884;2.258;2023-07-20T04:21:57;18.90;97.90
41058;DHT22;66768;48.884;2.258;2023-07-20T04:24:26;18.90;98.20
41058;DHT22;66768;48.884;2.258;2023-07-20T04:26:52;18.90;98.40
41058;DHT22;66768;48.884;2.258;2023-07-20T04:29:19;18.90;98.60
41058;DHT22;66768;48.884;2.258;2023-07-20T04:31:46;18.90;98.80
41058;DHT22;66768;48.884;2.258;2023-07-20T04:34:13;18.80;98.80
41058;DHT22;66768;48.884;2.258;2023-07-20T04:36:40;18.90;98.90
41058;DHT22;66768;48.884;2.258;2023-07-20T04:39:07;18.90;98.90
41058;DHT22;66768;48.884;2.258;2023-07-20T04:41:36;18.90;99.00
41058;DHT22;66768;48.884;2.258;2023-07-20T04:44:03;18.90;99.10
41058;DHT22;66768;48.884;2.258;2023-07-20T04:46:30;18.90;99.20
41058;DHT22;66768;48.884;2.258;2023-07-20T04:48:57;18.90;99.10
41058;DHT22;66768;48.884;2.258;2023-07-20T04:51:23;18.90;99.20
41058;DHT22;66768;48.884;2.258;2023-07-20T04:53:50;18.90;99.20
41058;DHT22;66768;48.884;2.258;2023-07-20T04:56:17;18.90;99.30
41058;DHT22;66768;48.884;2.258;2023-07-20T04:58:46;18.90;99.20
41058;DHT22;66768;48.884;2.258;2023-07-20T05:01:13;18.90;99.30
41058;DHT22;66768;48.884;2.258;2023-07-20T05:03:40;18.90;99.20
41058;DHT22;66768;48.884;2.258;2023-07-20T05:06:06;18.90;99.40
41058;DHT22;66768;48.884;2.258;2023-07-20T05:08:33;18.90;99.40
41058;DHT22;66768;48.884;2.258;2023-07-20T05:11:00;18.90;99.30
41058;DHT22;66768;48.884;2.258;2023-07-20T05:13:27;18.90;99.40
41058;DHT22;66768;48.884;2.258;2023-07-20T05:15:55;18.90;99.60
41058;DHT22;66768;48.884;2.258;2023-07-20T05:18:23;18.90;99.40
41058;DHT22;66768;48.884;2.258;2023-07-20T05:20:50;19.00;99.40
41058;DHT22;66768;48.884;2.258;2023-07-20T05:23:18;19.00;99.30
41058;DHT22;66768;48.884;2.258;2023-07-20T05:25:45;19.00;99.20
41058;DHT22;66768;48.884;2.258;2023-07-20T05:28:12;19.10;99.10
41058;DHT22;66768;48.884;2.258;2023-07-20T05:30:40;19.10;99.10
41058;DHT22;66768;48.884;2.258;2023-07-20T05:33:08;19.10;99.10
41058;DHT22;66768;48.884;2.258;2023-07-20T05:35:36;19.10;99.00
41058;DHT22;66768;48.884;2.258;2023-07-20T05:38:03;19.10;99.00
41058;DHT22;66768;48.884;2.258;2023-07-20T05:40:32;19.10;98.90
41058;DHT22;66768;48.884;2.258;2023-07-20T05:42:58;19.10;98.80
41058;DHT22;66768;48.884;2.258;2023-07-20T05:45:26;19.10;98.80
41058;DHT22;66768;48.884;2.258;2023-07-20T05:47:53;19.10;98.90
41058;DHT22;66768;48.884;2.258;2023-07-20T05:50:21;19.20;98.80
41058;DHT22;66768;48.884;2.258;2023-07-20T05:52:56;19.20;98.70
41058;DHT22;66768;48.884;2.258;2023-07-20T05:55:44;19.30;98.70
41058;DHT22;66768;48.884;2.258;2023-07-20T05:58:21;19.40;98.60
41058;DHT22;66768;48.884;2.258;2023-07-20T06:00:50;19.40;98.50
41058;DHT22;66768;48.884;2.258;2023-07-20T06:03:17;19.50;98.50
41058;DHT22;66768;48.884;2.258;2023-07-20T06:05:45;19.50;98.40
41058;DHT22;66768;48.884;2.258;2023-07-20T06:08:12;19.60;98.40
41058;DHT22;66768;48.884;2.258;2023-07-20T06:10:39;19.70;98.40
41058;DHT22;66768;48.884;2.258;2023-07-20T06:13:06;19.60;98.20
41058;DHT22;66768;48.884;2.258;2023-07-20T06:15:33;19.70;98.20
41058;DHT22;66768;48.884;2.258;2023-07-20T06:18:01;19.70;98.10
41058;DHT22;66768;48.884;2.258;2023-07-20T06:20:29;19.80;98.00
41058;DHT22;66768;48.884;2.258;2023-07-20T06:22:57;19.80;98.00
41058;DHT22;66768;48.884;2.258;2023-07-20T06:25:24;19.90;97.80
41058;DHT22;66768;48.884;2.258;2023-07-20T06:27:51;20.00;97.70
41058;DHT22;66768;48.884;2.258;2023-07-20T06:30:19;20.10;97.50
41058;DHT22;66768;48.884;2.258;2023-07-20T06:32:46;20.10;97.40
41058;DHT22;66768;48.884;2.258;2023-07-20T06:35:13;20.10;97.30
41058;DHT22;66768;48.884;2.258;2023-07-20T06:37:39;20.10;97.30
41058;DHT22;66768;48.884;2.258;2023-07-20T06:40:08;20.10;97.20
41058;DHT22;66768;48.884;2.258;2023-07-20T06:42:36;20.10;97.20
41058;DHT22;66768;48.884;2.258;2023-07-20T06:45:03;20.10;97.20
41058;DHT22;66768;48.884;2.258;2023-07-20T06:47:30;20.10;97.20
41058;DHT22;66768;48.884;2.258;2023-07-20T06:49:57;20.20;97.10
41058;DHT22;66768;48.884;2.258;2023-07-20T06:52:24;20.20;97.30
41058;DHT22;66768;48.884;2.258;2023-07-20T06:54:51;20.30;96.90
41058;DHT22;66768;48.884;2.258;2023-07-20T06:57:19;20.40;96.80
41058;DHT22;66768;48.884;2.258;2023-07-20T06:59:46;20.50;96.80
41058;DHT22;66768;48.884;2.258;2023-07-20T07:02:14;20.50;96.40
41058;DHT22;66768;48.884;2.258;2023-07-20T07:04:41;20.60;96.30
41058;DHT22;66768;48.884;2.258;2023-07-20T07:07:08;20.60;96.30
41058;DHT22;66768;48.884;2.258;2023-07-20T07:09:35;20.60;96.20
41058;DHT22;66768;48.884;2.258;2023-07-20T07:12:02;20.70;96.30
41058;DHT22;66768;48.884;2.258;2023-07-20T07:14:30;20.80;96.10
41058;DHT22;66768;48.884;2.258;2023-07-20T07:16:57;20.90;95.80
41058;DHT22;66768;48.884;2.258;2023-07-20T07:19:24;20.80;95.70
41058;DHT22;66768;48.884;2.258;2023-07-20T07:21:51;20.90;95.60
41058;DHT22;66768;48.884;2.258;2023-07-20T07:24:18;21.00;95.60
41058;DHT22;66768;48.884;2.258;2023-07-20T07:26:44;21.20;95.40
41058;DHT22;66768;48.884;2.258;2023-07-20T07:29:11;21.10;95.10
41058;DHT22;66768;48.884;2.258;2023-07-20T07:31:39;21.30;95.20
41058;DHT22;66768;48.884;2.258;2023-07-20T07:34:06;21.40;94.90
41058;DHT22;66768;48.884;2.258;2023-07-20T07:36:34;21.40;94.90
41058;DHT22;66768;48.884;2.258;2023-07-20T07:39:01;21.50;94.70
41058;DHT22;66768;48.884;2.258;2023-07-20T07:41:29;21.60;94.60
41058;DHT22;66768;48.884;2.258;2023-07-20T07:43:56;21.70;94.60
41058;DHT22;66768;48.884;2.258;2023-07-20T07:46:23;21.70;94.50
41058;DHT22;66768;48.884;2.258;2023-07-20T07:48:51;21.70;94.40
41058;DHT22;66768;48.884;2.258;2023-07-20T07:51:18;21.80;94.50
41058;DHT22;66768;48.884;2.258;2023-07-20T07:53:46;21.80;94.00
41058;DHT22;66768;48.884;2.258;2023-07-20T07:56:14;22.00;93.90
41058;DHT22;66768;48.884;2.258;2023-07-20T07:58:42;22.10;93.70
41058;DHT22;66768;48.884;2.258;2023-07-20T08:01:09;22.10;93.60
41058;DHT22;66768;48.884;2.258;2023-07-20T08:03:35;22.10;93.30
41058;DHT22;66768;48.884;2.258;2023-07-20T08:06:04;22.10;93.40
41058;DHT22;66768;48.884;2.258;2023-07-20T08:08:31;22.10;93.50
41058;DHT22;66768;48.884;2.258;2023-07-20T08:10:58;22.40;93.20
41058;DHT22;66768;48.884;2.258;2023-07-20T08:13:25;22.50;92.90
41058;DHT22;66768;48.884;2.258;2023-07-20T08:15:53;22.70;92.60
41058;DHT22;66768;48.884;2.258;2023-07-20T08:18:20;22.70;92.40
41058;DHT22;66768;48.884;2.258;2023-07-20T08:20:47;22.90;92.30
41058;DHT22;66768;48.884;2.258;2023-07-20T08:23:16;23.20;91.90
41058;DHT22;66768;48.884;2.258;2023-07-20T08:25:43;23.30;91.20
41058;DHT22;66768;48.884;2.258;2023-07-20T08:28:10;23.40;91.50
41058;DHT22;66768;48.884;2.258;2023-07-20T08:30:41;23.60;91.40
41058;DHT22;66768;48.884;2.258;2023-07-20T08:33:09;23.40;91.30
41058;DHT22;66768;48.884;2.258;2023-07-20T08:35:36;23.30;91.50
41058;DHT22;66768;48.884;2.258;2023-07-20T08:38:03;23.40;91.80
41058;DHT22;66768;48.884;2.258;2023-07-20T08:40:32;23.70;91.30
41058;DHT22;66768;48.884;2.258;2023-07-20T08:42:59;23.80;90.90
41058;DHT22;66768;48.884;2.258;2023-07-20T08:45:26;23.90;90.60
41058;DHT22;66768;48.884;2.258;2023-07-20T08:47:55;23.80;90.70
41058;DHT22;66768;48.884;2.258;2023-07-20T08:50:23;23.70;90.80
41058;DHT22;66768;48.884;2.258;2023-07-20T08:52:52;23.40;90.70
41058;DHT22;66768;48.884;2.258;2023-07-20T08:55:20;23.40;91.00
41058;DHT22;66768;48.884;2.258;2023-07-20T08:57:50;23.30;91.00
41058;DHT22;66768;48.884;2.258;2023-07-20T09:00:20;23.30;91.00
41058;DHT22;66768;48.884;2.258;2023-07-20T09:02:49;23.10;91.00
41058;DHT22;66768;48.884;2.258;2023-07-20T09:05:17;23.40;91.20
41058;DHT22;66768;48.884;2.258;2023-07-20T09:07:44;23.60;90.80
41058;DHT22;66768;48.884;2.258;2023-07-20T09:10:11;23.50;90.20
41058;DHT22;66768;48.884;2.258;2023-07-20T09:12:39;23.60;90.30
41058;DHT22;66768;48.884;2.258;2023-07-20T09:15:09;23.60;90.30
41058;DHT22;66768;48.884;2.258;2023-07-20T09:17:36;23.60;90.00
41058;DHT22;66768;48.884;2.258;2023-07-20T09:20:04;23.30;89.30
41058;DHT22;66768;48.884;2.258;2023-07-20T09:22:36;24.50;88.70
41058;DHT22;66768;48.884;2.258;2023-07-20T09:25:06;24.70;86.50
41058;DHT22;66768;48.884;2.258;2023-07-20T09:27:36;24.20;87.40
41058;DHT22;66768;48.884;2.258;2023-07-20T09:30:04;24.10;87.50
41058;DHT22;66768;48.884;2.258;2023-07-20T09:32:38;23.90;86.50
41058;DHT22;66768;48.884;2.258;2023-07-20T09:35:05;23.60;87.40
41058;DHT22;66768;48.884;2.258;2023-07-20T09:37:33;23.50;87.50
41058;DHT22;66768;48.884;2.258;2023-07-20T09:40:00;23.40;88.30
41058;DHT22;66768;48.884;2.258;2023-07-20T09:42:28;23.40;87.70
41058;DHT22;66768;48.884;2.258;2023-07-20T09:44:56;23.60;88.20
41058;DHT22;66768;48.884;2.258;2023-07-20T09:47:23;23.70;87.50
41058;DHT22;66768;48.884;2.258;2023-07-20T09:49:58;23.70;87.20
41058;DHT22;66768;48.884;2.258;2023-07-20T09:52:26;23.80;86.20
41058;DHT22;66768;48.884;2.258;2023-07-20T09:54:53;23.90;84.70
41058;DHT22;66768;48.884;2.258;2023-07-20T09:57:21;23.70;83.10
41058;DHT22;66768;48.884;2.258;2023-07-20T09:59:48;23.60;83.90
41058;DHT22;66768;48.884;2.258;2023-07-20T10:02:20;23.50;84.50
41058;DHT22;66768;48.884;2.258;2023-07-20T10:04:49;23.40;84.60
41058;DHT22;66768;48.884;2.258;2023-07-20T10:07:19;23.20;84.70
41058;DHT22;66768;48.884;2.258;2023-07-20T10:09:51;23.30;85.40
41058;DHT22;66768;48.884;2.258;2023-07-20T10:12:22;23.40;86.10
41058;DHT22;66768;48.884;2.258;2023-07-20T10:14:54;23.60;86.30
41058;DHT22;66768;48.884;2.258;2023-07-20T10:17:26;23.80;86.60
41058;DHT22;66768;48.884;2.258;2023-07-20T10:19:55;24.00;85.60
41058;DHT22;66768;48.884;2.258;2023-07-20T10:22:26;24.00;84.40
41058;DHT22;66768;48.884;2.258;2023-07-20T10:24:54;24.00;84.10
41058;DHT22;66768;48.884;2.258;2023-07-20T10:27:23;24.10;83.70
41058;DHT22;66768;48.884;2.258;2023-07-20T10:29:51;23.90;82.70
41058;DHT22;66768;48.884;2.258;2023-07-20T10:32:19;23.90;83.00
41058;DHT22;66768;48.884;2.258;2023-07-20T10:34:50;23.80;82.20
41058;DHT22;66768;48.884;2.258;2023-07-20T10:37:47;23.80;81.70
41058;DHT22;66768;48.884;2.258;2023-07-20T10:40:25;23.90;81.50
41058;DHT22;66768;48.884;2.258;2023-07-20T10:42:57;23.90;80.70
41058;DHT22;66768;48.884;2.258;2023-07-20T10:45:34;24.00;81.50
41058;DHT22;66768;48.884;2.258;2023-07-20T10:48:03;23.90;78.30
41058;DHT22;66768;48.884;2.258;2023-07-20T10:50:32;23.80;77.60
41058;DHT22;66768;48.884;2.258;2023-07-20T10:53:10;23.80;78.00
41058;DHT22;66768;48.884;2.258;2023-07-20T10:55:37;23.70;78.70
41058;DHT22;66768;48.884;2.258;2023-07-20T10:58:08;23.80;78.50
41058;DHT22;66768;48.884;2.258;2023-07-20T11:00:36;23.80;78.10
41058;DHT22;66768;48.884;2.258;2023-07-20T11:03:04;23.80;77.80
41058;DHT22;66768;48.884;2.258;2023-07-20T11:05:36;23.90;77.70
41058;DHT22;66768;48.884;2.258;2023-07-20T11:08:10;23.80;76.70
41058;DHT22;66768;48.884;2.258;2023-07-20T11:10:37;23.90;77.70
41058;DHT22;66768;48.884;2.258;2023-07-20T11:13:18;23.90;76.80
41058;DHT22;66768;48.884;2.258;2023-07-20T11:15:46;23.90;76.60
41058;DHT22;66768;48.884;2.258;2023-07-20T11:18:14;23.90;76.70
41058;DHT22;66768;48.884;2.258;2023-07-20T11:20:41;24.00;75.80
41058;DHT22;66768;48.884;2.258;2023-07-20T11:23:10;24.00;77.30
41058;DHT22;66768;48.884;2.258;2023-07-20T11:25:38;24.10;75.00
41058;DHT22;66768;48.884;2.258;2023-07-20T11:28:09;24.10;74.50
41058;DHT22;66768;48.884;2.258;2023-07-20T11:30:37;24.10;74.30
41058;DHT22;66768;48.884;2.258;2023-07-20T11:33:04;24.10;74.20
41058;DHT22;66768;48.884;2.258;2023-07-20T11:35:35;24.10;73.40
41058;DHT22;66768;48.884;2.258;2023-07-20T11:38:02;24.10;73.50
41058;DHT22;66768;48.884;2.258;2023-07-20T11:40:30;24.10;73.30
41058;DHT22;66768;48.884;2.258;2023-07-20T11:42:57;24.00;72.60
41058;DHT22;66768;48.884;2.258;2023-07-20T11:45:25;24.00;73.30
41058;DHT22;66768;48.884;2.258;2023-07-20T11:47:53;24.10;73.70
41058;DHT22;66768;48.884;2.258;2023-07-20T11:50:20;24.20;74.30
41058;DHT22;66768;48.884;2.258;2023-07-20T11:52:46;24.30;74.40
41058;DHT22;66768;48.884;2.258;2023-07-20T11:55:14;24.30;73.80
41058;DHT22;66768;48.884;2.258;2023-07-20T11:58:00;24.30;72.20
41058;DHT22;66768;48.884;2.258;2023-07-20T12:00:27;24.30;72.00
41058;DHT22;66768;48.884;2.258;2023-07-20T12:02:55;24.40;71.70
41058;DHT22;66768;48.884;2.258;2023-07-20T12:05:22;24.50;72.10
41058;DHT22;66768;48.884;2.258;2023-07-20T12:07:50;24.60;73.00
41058;DHT22;66768;48.884;2.258;2023-07-20T12:10:23;24.60;72.10
41058;DHT22;66768;48.884;2.258;2023-07-20T12:12:52;24.70;71.40
41058;DHT22;66768;48.884;2.258;2023-07-20T12:15:23;24.70;71.20
41058;DHT22;66768;48.884;2.258;2023-07-20T12:17:53;24.80;72.50
41058;DHT22;66768;48.884;2.258;2023-07-20T12:20:28;24.90;72.00
41058;DHT22;66768;48.884;2.258;2023-07-20T12:22:57;25.00;72.20
41058;DHT22;66768;48.884;2.258;2023-07-20T12:25:33;24.90;70.90
41058;DHT22;66768;48.884;2.258;2023-07-20T12:28:04;24.90;71.20
41058;DHT22;66768;48.884;2.258;2023-07-20T12:30:31;24.80;70.90
41058;DHT22;66768;48.884;2.258;2023-07-20T12:32:58;24.70;71.90
41058;DHT22;66768;48.884;2.258;2023-07-20T12:35:25;24.70;72.80
41058;DHT22;66768;48.884;2.258;2023-07-20T12:37:52;24.60;71.50
41058;DHT22;66768;48.884;2.258;2023-07-20T12:40:20;24.60;72.50
41058;DHT22;66768;48.884;2.258;2023-07-20T12:42:47;24.60;73.40
41058;DHT22;66768;48.884;2.258;2023-07-20T12:45:15;24.60;71.60
41058;DHT22;66768;48.884;2.258;2023-07-20T12:47:42;24.40;70.80
41058;DHT22;66768;48.884;2.258;2023-07-20T12:50:09;24.30;71.20
41058;DHT22;66768;48.884;2.258;2023-07-20T12:52:37;24.30;71.20
41058;DHT22;66768;48.884;2.258;2023-07-20T12:55:05;24.30;71.10
41058;DHT22;66768;48.884;2.258;2023-07-20T12:57:33;24.30;71.30
41058;DHT22;66768;48.884;2.258;2023-07-20T13:00:00;24.30;71.50
41058;DHT22;66768;48.884;2.258;2023-07-20T13:02:29;24.40;71.50
41058;DHT22;66768;48.884;2.258;2023-07-20T13:04:56;24.30;71.20
41058;DHT22;66768;48.884;2.258;2023-07-20T13:07:29;24.20;71.40
41058;DHT22;66768;48.884;2.258;2023-07-20T13:09:57;24.10;72.00
41058;DHT22;66768;48.884;2.258;2023-07-20T13:12:26;24.10;72.70
41058;DHT22;66768;48.884;2.258;2023-07-20T13:14:53;24.20;72.70
41058;DHT22;66768;48.884;2.258;2023-07-20T13:17:21;24.20;72.30
41058;DHT22;66768;48.884;2.258;2023-07-20T13:19:49;24.30;71.90
41058;DHT22;66768;48.884;2.258;2023-07-20T13:22:16;24.30;72.90
41058;DHT22;66768;48.884;2.258;2023-07-20T13:24:45;24.40;73.10
41058;DHT22;66768;48.884;2.258;2023-07-20T13:27:14;24.50;72.40
41058;DHT22;66768;48.884;2.258;2023-07-20T13:29:41;24.60;72.20
41058;DHT22;66768;48.884;2.258;2023-07-20T13:32:09;24.70;71.90
41058;DHT22;66768;48.884;2.258;2023-07-20T13:34:36;24.70;71.90
41058;DHT22;66768;48.884;2.258;2023-07-20T13:37:05;24.80;72.00
41058;DHT22;66768;48.884;2.258;2023-07-20T13:39:32;24.80;73.10
41058;DHT22;66768;48.884;2.258;2023-07-20T13:41:59;24.80;73.80
41058;DHT22;66768;48.884;2.258;2023-07-20T13:44:27;24.90;73.20
41058;DHT22;66768;48.884;2.258;2023-07-20T13:46:54;24.90;73.60
41058;DHT22;66768;48.884;2.258;2023-07-20T13:49:20;24.90;73.60
41058;DHT22;66768;48.884;2.258;2023-07-20T13:51:47;24.90;72.70
41058;DHT22;66768;48.884;2.258;2023-07-20T13:54:16;24.90;72.50
41058;DHT22;66768;48.884;2.258;2023-07-20T13:56:42;24.90;71.60
41058;DHT22;66768;48.884;2.258;2023-07-20T13:59:09;24.80;70.50
41058;DHT22;66768;48.884;2.258;2023-07-20T14:01:36;24.70;70.60
41058;DHT22;66768;48.884;2.258;2023-07-20T14:04:03;24.70;71.70
41058;DHT22;66768;48.884;2.258;2023-07-20T14:06:31;24.70;71.10
41058;DHT22;66768;48.884;2.258;2023-07-20T14:08:59;24.70;71.80
41058;DHT22;66768;48.884;2.258;2023-07-20T14:11:27;24.80;73.60
41058;DHT22;66768;48.884;2.258;2023-07-20T14:13:54;24.80;71.80
41058;DHT22;66768;48.884;2.258;2023-07-20T14:16:23;24.80;72.20
41058;DHT22;66768;48.884;2.258;2023-07-20T14:18:51;24.90;72.30
41058;DHT22;66768;48.884;2.258;2023-07-20T14:21:19;24.80;71.10
41058;DHT22;66768;48.884;2.258;2023-07-20T14:23:46;24.80;70.60
41058;DHT22;66768;48.884;2.258;2023-07-20T14:26:14;24.80;71.20
41058;DHT22;66768;48.884;2.258;2023-07-20T14:28:42;24.80;70.70
41058;DHT22;66768;48.884;2.258;2023-07-20T14:31:09;24.80;70.70
41058;DHT22;66768;48.884;2.258;2023-07-20T14:33:36;24.80;73.60
41058;DHT22;66768;48.884;2.258;2023-07-20T14:36:03;24.80;71.70
41058;DHT22;66768;48.884;2.258;2023-07-20T14:38:31;24.80;71.90
41058;DHT22;66768;48.884;2.258;2023-07-20T14:40:58;24.90;70.40
41058;DHT22;66768;48.884;2.258;2023-07-20T14:43:25;24.90;70.00
41058;DHT22;66768;48.884;2.258;2023-07-20T14:45:53;25.00;69.30
41058;DHT22;66768;48.884;2.258;2023-07-20T14:48:21;25.00;69.50
41058;DHT22;66768;48.884;2.258;2023-07-20T14:50:47;25.00;70.00
41058;DHT22;66768;48.884;2.258;2023-07-20T14:53:14;25.00;69.20
41058;DHT22;66768;48.884;2.258;2023-07-20T14:55:42;25.00;69.80
41058;DHT22;66768;48.884;2.258;2023-07-20T14:58:09;25.00;70.80
41058;DHT22;66768;48.884;2.258;2023-07-20T15:00:36;25.00;71.00
41058;DHT22;66768;48.884;2.258;2023-07-20T15:03:04;25.00;69.30
41058;DHT22;66768;48.884;2.258;2023-07-20T15:05:31;25.00;69.30
41058;DHT22;66768;48.884;2.258;2023-07-20T15:07:58;25.00;70.00
41058;DHT22;66768;48.884;2.258;2023-07-20T15:10:25;25.00;70.40
41058;DHT22;66768;48.884;2.258;2023-07-20T15:12:52;25.10;70.80
41058;DHT22;66768;48.884;2.258;2023-07-20T15:15:19;25.10;70.10
41058;DHT22;66768;48.884;2.258;2023-07-20T15:17:46;25.10;72.20
41058;DHT22;66768;48.884;2.258;2023-07-20T15:20:16;25.10;70.50
41058;DHT22;66768;48.884;2.258;2023-07-20T15:22:43;25.20;68.90
41058;DHT22;66768;48.884;2.258;2023-07-20T15:25:10;25.20;69.30
41058;DHT22;66768;48.884;2.258;2023-07-20T15:27:40;25.20;68.90
41058;DHT22;66768;48.884;2.258;2023-07-20T15:30:09;25.20;68.80
41058;DHT22;66768;48.884;2.258;2023-07-20T15:32:36;25.30;68.10
41058;DHT22;66768;48.884;2.258;2023-07-20T15:35:04;25.30;67.90
41058;DHT22;66768;48.884;2.258;2023-07-20T15:37:33;25.30;67.80